Time;durP1;ratioP1;P1;durP2;ratioP2;P2;SDS_P1;SDS_P2;PMS_P1;PMS_P2;Temp;Humidity;BMP_temperature;BMP_pressure;BME280_temperature;BME280_humidity;BME280_pressure;Samples;Min_cycle;Max_cycle;Signal;HPM_P1;HPM_P2
2022/03/25 00:01:36;;;;;;;29.65;21.35;;;7.60;81.20;;;6.90;80.31;101522.91;4996250;28;20055;-80
2022/03/25 00:04:03;;;;;;;29.92;20.15;;;7.60;81.90;;;6.77;82.00;101533.25;4994491;28;20073;-79
2022/03/25 00:06:31;;;;;;;28.20;20.10;;;7.50;82.90;;;6.61;85.02;101536.56;4991130;28;20511;-77
2022/03/25 00:08:58;;;;;;;31.00;19.05;;;7.40;83.50;;;6.61;82.63;101542.69;4991407;28;20054;-78
2022/03/25 00:11:25;;;;;;;27.45;20.33;;;7.30;83.20;;;6.53;84.88;101542.59;4993327;28;20078;-79
2022/03/25 00:13:52;;;;;;;28.92;20.65;;;7.30;84.50;;;6.39;87.45;101544.16;4992466;28;20578;-78
2022/03/25 00:16:19;;;;;;;31.20;21.60;;;7.10;85.30;;;6.41;85.63;101536.34;4991594;28;20074;-79
2022/03/25 00:18:46;;;;;;;33.25;22.58;;;7.00;85.20;;;6.37;84.86;101538.03;4995958;28;20053;-77
2022/03/25 00:21:13;;;;;;;35.35;21.15;;;7.00;85.80;;;6.22;89.20;101542.22;4994160;28;20047;-76
2022/03/25 00:23:40;;;;;;;29.63;21.10;;;9.10;88.20;;;6.13;90.05;101546.44;4978015;28;20083;-78
2022/03/25 00:26:07;;;;;;;29.48;21.60;;;7.90;87.60;;;6.18;92.38;101550.00;4995431;28;20122;-78
2022/03/25 00:28:36;;;;;;;30.38;21.17;;;7.00;88.90;;;6.22;89.04;101543.94;4998322;28;20449;-79
2022/03/25 00:31:09;;;;;;;33.92;21.63;;;6.80;88.80;;;6.21;89.98;101540.47;4977626;28;20050;-79
2022/03/25 00:33:37;;;;;;;32.58;23.40;;;7.40;89.70;;;6.11;92.73;101541.19;4975416;28;20042;-78
2022/03/25 00:36:07;;;;;;;29.25;22.00;;;6.70;89.80;;;5.98;94.76;101542.75;4974867;28;20561;-78
2022/03/25 00:38:34;;;;;;;32.20;21.40;;;8.10;90.70;;;6.12;94.60;101542.94;5007037;28;20471;-79
2022/03/25 00:41:07;;;;;;;30.63;20.07;;;6.60;90.40;;;6.04;91.28;101535.00;4990759;28;20049;-78
2022/03/25 00:43:35;;;;;;;32.13;22.48;;;6.70;90.20;;;6.10;90.22;101531.59;4976587;28;20055;-79
2022/03/25 00:46:02;;;;;;;35.42;22.95;;;6.60;89.90;;;6.10;90.80;101534.22;4978563;28;20502;-78
2022/03/25 00:48:30;;;;;;;38.08;23.83;;;8.00;90.60;;;6.09;90.60;101529.84;4981088;28;20144;-80
2022/03/25 00:50:57;;;;;;;39.88;22.85;;;6.60;90.30;;;6.06;92.03;101529.81;4979464;28;20055;-78
2022/03/25 00:53:25;;;;;;;32.50;21.70;;;6.50;90.40;;;5.94;94.48;101531.38;4976521;28;20050;-78
2022/03/25 00:55:52;;;;;;;33.42;22.70;;;6.50;90.90;;;5.96;93.98;101527.03;4977513;28;20153;-78
2022/03/25 00:58:21;;;;;;;33.50;22.67;;;6.80;91.00;;;5.92;95.72;101533.06;4976808;28;20073;-78
2022/03/25 01:00:48;;;;;;;35.03;23.35;;;6.50;91.00;;;5.83;95.94;101530.31;4992171;28;20042;-77
2022/03/25 01:03:16;;;;;;;30.70;21.58;;;7.70;91.70;;;5.78;98.83;101532.00;4975554;28;20876;-77
2022/03/25 01:05:43;;;;;;;32.75;21.48;;;7.00;91.90;;;5.78;98.17;101534.63;4974414;28;20054;-78
2022/03/25 01:08:11;;;;;;;36.65;23.25;;;6.40;91.70;;;5.73;98.87;101526.69;4976250;28;20069;-80
2022/03/25 01:10:38;;;;;;;34.20;23.73;;;6.40;91.90;;;5.73;99.34;101525.84;4994763;28;20046;-79
2022/03/25 01:13:06;;;;;;;31.58;22.13;;;6.30;91.90;;;5.79;96.45;101531.16;4993855;28;20042;-79
2022/03/25 01:15:34;;;;;;;38.65;23.77;;;6.20;91.60;;;5.83;96.08;101525.09;4994131;28;20046;-79
2022/03/25 01:18:01;;;;;;;35.67;23.30;;;6.30;91.40;;;5.74;94.63;101520.63;4994327;28;20050;-78
2022/03/25 01:20:30;;;;;;;36.15;22.92;;;6.30;91.40;;;5.67;95.83;101532.72;4979012;28;20058;-79
2022/03/25 01:22:57;;;;;;;33.78;22.42;;;6.30;91.40;;;5.52;99.41;101530.75;4977665;28;20114;-79
2022/03/25 01:25:24;;;;;;;33.03;21.25;;;6.20;91.80;;;5.49;97.64;101522.00;4978085;28;20047;-79
2022/03/25 01:27:54;;;;;;;33.53;23.92;;;6.10;91.80;;;5.45;97.94;101522.81;4961710;28;20042;-78
2022/03/25 01:30:21;;;;;;;30.15;21.85;;;6.10;91.80;;;5.36;98.59;101521.78;4989787;28;20047;-78
2022/03/25 01:32:48;;;;;;;37.80;21.90;;;6.10;91.90;;;5.47;95.03;101521.97;4989349;28;20108;-77
2022/03/25 01:35:15;;;;;;;35.58;23.02;;;7.20;91.80;;;5.37;100.00;101528.75;4989623;28;20045;-77
2022/03/25 01:37:43;;;;;;;32.65;23.00;;;6.00;92.00;;;5.46;99.46;101521.94;4972835;28;20051;-77
2022/03/25 01:40:10;;;;;;;33.78;22.05;;;5.90;92.00;;;5.39;97.26;101519.25;4990575;28;20042;-77
2022/03/25 01:42:41;;;;;;;28.40;21.02;;;6.00;91.80;;;5.11;93.52;101520.50;4988638;28;20050;-77
2022/03/25 01:45:11;;;;;;;37.15;23.85;;;5.90;91.00;;;4.91;92.05;101518.44;4989401;28;20054;-77
2022/03/25 01:47:40;;;;;;;31.40;21.77;;;5.90;90.50;;;4.83;96.46;101520.00;4989388;28;20100;-76
2022/03/25 01:50:19;;;;;;;32.85;22.75;;;5.70;91.00;;;4.71;100.00;101518.06;4989694;28;20061;-76
2022/03/25 01:52:50;;;;;;;28.02;19.25;;;5.70;91.90;;;4.59;99.74;101515.22;4988307;28;20042;-76
2022/03/25 01:55:26;;;;;;;30.85;20.70;;;5.50;91.50;;;4.62;100.00;101515.31;4973477;28;20662;-78
2022/03/25 01:57:59;;;;;;;26.60;20.27;;;5.40;92.40;;;4.63;100.00;101517.91;4990361;28;20050;-79
2022/03/25 02:00:30;;;;;;;31.90;21.50;;;6.30;93.10;;;4.60;100.00;101524.78;5000307;28;20058;-78
2022/03/25 02:02:58;;;;;;;35.60;21.08;;;5.30;93.30;;;4.52;100.00;101530.75;4994015;28;20054;-79
2022/03/25 02:05:26;;;;;;;30.58;20.52;;;5.30;93.40;;;4.58;100.00;101523.91;4972467;28;20046;-77
2022/03/25 02:07:54;;;;;;;34.22;20.90;;;5.20;93.40;;;4.53;100.00;101516.88;5006675;28;20050;-78
2022/03/25 02:10:22;;;;;;;29.33;21.50;;;6.40;94.10;;;4.50;100.00;101523.75;4990564;28;20054;-78
2022/03/25 02:12:53;;;;;;;26.45;19.17;;;5.30;93.90;;;4.48;100.00;101526.34;5006454;28;20038;-79
2022/03/25 02:15:43;;;;;;;31.10;20.70;;;5.20;93.60;;;4.49;100.00;101522.88;4990674;28;20043;-79
2022/03/25 02:18:15;;;;;;;28.30;20.70;;;5.10;93.80;;;4.54;100.00;101521.22;5006878;28;20102;-78
2022/03/25 02:20:43;;;;;;;29.52;20.92;;;4.20;93.70;;;4.51;100.00;101517.69;4986371;28;20734;-77
2022/03/25 02:23:13;;;;;;;;;;;5.10;93.80;;;4.60;100.00;101516.97;4984799;28;20082;-78
2022/03/25 02:25:44;;;;;;;31.23;19.75;;;5.10;93.60;;;4.52;100.00;101520.31;5000654;28;19929;-77
2022/03/25 02:28:12;;;;;;;31.70;20.90;;;5.10;94.10;;;4.35;100.00;101516.50;5000963;28;20062;-77
2022/03/25 02:30:43;;;;;;;30.63;19.77;;;5.10;93.70;;;4.33;100.00;101520.81;5001695;28;20183;-78
2022/03/25 02:33:14;;;;;;;31.90;20.40;;;4.90;93.90;;;4.25;100.00;101515.44;4983715;28;20058;-78
2022/03/25 02:35:43;;;;;;;31.83;20.02;;;7.30;94.80;;;4.17;100.00;101523.09;4984560;28;20053;-76
2022/03/25 02:38:17;;;;;;;35.25;20.60;;;5.90;94.50;;;4.11;100.00;101518.66;4970175;28;20047;-78
2022/03/25 02:40:44;;;;;;;28.63;20.75;;;6.40;94.90;;;4.11;100.00;101521.25;5000540;28;20118;-76
2022/03/25 02:43:11;;;;;;;28.42;20.13;;;4.80;94.60;;;4.06;100.00;101527.19;4969631;28;20161;-77
2022/03/25 02:45:43;;;;;;;30.60;19.30;;;4.70;94.90;;;4.14;100.00;101522.16;5000749;28;20089;-76
2022/03/25 02:48:11;;;;;;;32.25;22.73;;;4.80;94.80;;;4.20;100.00;101527.47;4985614;28;20596;-76
2022/03/25 02:50:39;;;;;;;37.25;28.23;;;4.70;94.80;;;4.25;100.00;101529.34;5001073;28;20432;-77
2022/03/25 02:53:06;;;;;;;37.95;27.33;;;4.80;94.90;;;4.24;100.00;101529.31;4983532;28;20042;-77
2022/03/25 02:55:33;;;;;;;33.40;26.45;;;6.60;95.50;;;4.32;100.00;101537.31;4987874;28;20034;-76
2022/03/25 02:58:00;;;;;;;30.55;21.63;;;4.80;95.00;;;4.15;100.00;101534.34;4973884;28;20050;-77
2022/03/25 03:00:29;;;;;;;31.75;22.95;;;6.00;95.30;;;4.19;100.00;101539.66;4972068;28;20571;-78
2022/03/25 03:03:00;;;;;;;29.83;20.13;;;4.80;94.90;;;4.06;100.00;101525.50;4987419;28;20062;-77
2022/03/25 03:05:29;;;;;;;28.25;19.63;;;4.70;94.70;;;3.89;100.00;101538.13;4987769;28;20057;-77
2022/03/25 03:07:57;;;;;;;32.00;19.08;;;4.70;94.80;;;4.00;100.00;101534.91;4987636;28;20483;-78
2022/03/25 03:10:25;;;;;;;32.53;18.35;;;4.70;94.80;;;3.91;100.00;101533.84;4971340;28;20483;-77
2022/03/25 03:12:53;;;;;;;35.97;19.10;;;6.30;95.20;;;3.86;100.00;101535.47;4970587;28;20046;-77
2022/03/25 03:15:22;;;;;;;31.58;18.40;;;4.60;95.00;;;3.70;100.00;101529.00;4993655;28;20038;-77
2022/03/25 03:17:49;;;;;;;27.55;18.05;;;4.60;95.20;;;3.66;100.00;101530.66;4993133;28;20519;-76
2022/03/25 03:20:20;;;;;;;26.10;18.75;;;4.40;95.20;;;3.60;100.00;101530.53;4988361;28;20046;-76
2022/03/25 03:22:48;;;;;;;;;;;4.40;95.10;;;3.60;100.00;101535.72;4986938;28;20046;-75
2022/03/25 03:25:15;;;;;;;30.38;20.55;;;4.30;95.20;;;3.55;100.00;101524.34;4987718;28;19965;-76
2022/03/25 03:27:42;;;;;;;34.17;21.25;;;4.30;95.10;;;3.38;100.00;101522.22;4987164;28;20066;-75
2022/03/25 03:30:11;;;;;;;34.40;20.65;;;4.30;95.20;;;3.55;100.00;101530.41;4992592;28;20054;-75
2022/03/25 03:32:39;;;;;;;34.00;20.95;;;4.30;95.00;;;3.46;100.00;101518.91;4990754;28;20035;-77
2022/03/25 03:35:08;;;;;;;30.65;19.85;;;5.80;95.40;;;3.42;100.00;101525.75;4990823;28;20061;-75
2022/03/25 03:37:45;;;;;;;28.92;20.55;;;4.20;95.10;;;3.36;100.00;101529.13;4990720;28;20042;-76
2022/03/25 03:40:16;;;;;;;31.13;19.63;;;4.20;95.90;;;3.21;100.00;101520.94;4991265;28;20468;-77
2022/03/25 03:42:45;;;;;;;32.25;20.85;;;4.10;95.50;;;3.06;100.00;101527.50;4990836;28;20042;-77
2022/03/25 03:45:14;;;;;;;32.28;20.00;;;4.00;95.40;;;3.21;100.00;101527.00;4977148;28;20055;-77
2022/03/25 03:47:42;;;;;;;30.85;21.33;;;3.90;95.50;;;2.95;100.00;101527.19;4991482;28;20046;-77
2022/03/25 03:50:14;;;;;;;32.53;20.08;;;3.90;95.40;;;2.93;100.00;101528.88;4975681;28;20054;-77
2022/03/25 03:52:42;;;;;;;28.65;19.67;;;3.90;95.40;;;2.98;100.00;101529.91;4975384;28;20060;-77
2022/03/25 03:55:11;;;;;;;35.08;22.52;;;3.80;95.90;;;2.93;100.00;101521.09;4990571;28;20488;-77
2022/03/25 03:57:57;;;;;;;30.23;22.65;;;4.40;96.10;;;2.93;100.00;101528.00;4991508;28;20065;-77
2022/03/25 04:00:28;;;;;;;34.60;20.48;;;4.40;96.10;;;2.97;100.00;101527.25;4990994;28;20415;-77
2022/03/25 04:02:55;;;;;;;31.80;21.33;;;3.80;96.30;;;3.04;100.00;101523.09;5006062;28;20046;-77
2022/03/25 04:05:23;;;;;;;37.83;25.10;;;4.40;96.30;;;3.04;100.00;101523.94;4990621;28;20056;-76
2022/03/25 04:07:50;;;;;;;36.15;26.30;;;3.70;96.30;;;3.01;100.00;101525.63;4988231;28;20520;-75
2022/03/25 04:10:18;;;;;;;38.63;26.52;;;3.90;96.40;;;2.94;100.00;101522.84;4987915;28;20049;-78
2022/03/25 04:12:46;;;;;;;38.00;27.02;;;3.70;96.30;;;2.84;100.00;101528.66;4987415;28;20138;-78
2022/03/25 04:15:15;;;;;;;36.28;26.58;;;3.60;96.50;;;2.74;100.00;101518.84;4967616;28;20050;-77
2022/03/25 04:17:44;;;;;;;35.47;25.67;;;6.40;96.90;;;2.77;100.00;101522.41;4976401;28;20070;-77
2022/03/25 04:20:14;;;;;;;36.17;24.55;;;3.50;96.40;;;2.78;100.00;101520.69;4974125;28;20042;-76
2022/03/25 04:22:45;;;;;;;33.17;24.67;;;5.20;96.80;;;2.78;100.00;101525.88;4989802;28;20082;-77
2022/03/25 04:25:14;;;;;;;32.78;22.50;;;3.50;96.40;;;2.74;100.00;101534.44;4990407;28;20053;-77
2022/03/25 04:27:55;;;;;;;32.40;22.65;;;4.80;96.70;;;2.66;100.00;101531.63;4993440;28;20046;-77
2022/03/25 04:30:33;;;;;;;34.95;23.15;;;3.40;96.40;;;2.46;100.00;101536.25;4980471;28;20499;-77
2022/03/25 04:33:01;;;;;;;32.55;21.10;;;5.40;97.30;;;2.44;100.00;101533.66;4979088;28;20050;-77
2022/03/25 04:35:30;;;;;;;28.75;20.08;;;3.30;96.60;;;2.50;100.00;101531.22;4976449;28;20456;-77
2022/03/25 04:37:58;;;;;;;36.88;21.40;;;3.30;96.40;;;2.36;100.00;101536.03;4975623;28;20079;-77
2022/03/25 04:40:28;;;;;;;27.35;20.00;;;3.30;96.50;;;2.26;100.00;101539.19;4991846;28;20559;-78
2022/03/25 04:42:58;;;;;;;31.63;21.20;;;3.20;96.40;;;2.25;100.00;101538.28;4973251;28;20054;-76
2022/03/25 04:45:26;;;;;;;31.50;19.85;;;3.20;96.60;;;2.21;100.00;101539.03;4969837;28;20050;-76
2022/03/25 04:47:54;;;;;;;30.35;20.20;;;3.10;96.80;;;2.23;100.00;101539.97;4970283;28;20055;-77
2022/03/25 04:50:40;;;;;;;29.38;18.95;;;3.70;97.10;;;2.25;100.00;101540.03;4956131;28;20426;-77
2022/03/25 04:53:07;;;;;;;30.10;20.42;;;4.20;97.20;;;2.32;100.00;101548.88;4985327;28;20129;-78
2022/03/25 04:55:35;;;;;;;32.33;18.95;;;3.00;96.90;;;2.36;100.00;101545.53;4970315;28;20091;-77
2022/03/25 04:58:02;;;;;;;28.92;19.40;;;3.10;97.00;;;2.29;100.00;101546.19;4954329;28;20385;-76
2022/03/25 05:00:30;;;;;;;33.60;23.23;;;3.00;97.00;;;2.02;100.00;101545.41;4969544;28;20038;-76
2022/03/25 05:02:57;;;;;;;31.52;20.83;;;3.00;97.30;;;2.02;100.00;101555.78;4954044;28;20060;-77
2022/03/25 05:05:25;;;;;;;32.03;21.33;;;3.00;97.10;;;2.04;100.00;101551.53;4986589;28;20061;-76
2022/03/25 05:07:52;;;;;;;30.58;20.20;;;3.40;97.30;;;1.98;100.00;101556.53;4971576;28;20049;-76
2022/03/25 05:10:19;;;;;;;29.52;19.70;;;3.00;97.40;;;2.09;100.00;101559.44;4970744;28;20057;-77
2022/03/25 05:12:46;;;;;;;34.95;21.30;;;2.90;97.20;;;2.01;100.00;101553.16;4972537;28;20057;-78
2022/03/25 05:15:13;;;;;;;34.40;20.73;;;2.70;97.40;;;2.15;100.00;101553.56;4973888;28;20035;-76
2022/03/25 05:17:51;;;;;;;33.78;21.48;;;2.80;97.20;;;2.06;100.00;101548.97;4973951;28;20053;-78
2022/03/25 05:20:21;;;;;;;33.53;21.63;;;2.90;97.50;;;1.86;100.00;101551.84;4955703;28;20461;-76
2022/03/25 05:23:06;;;;;;;38.33;23.17;;;2.60;97.20;;;1.89;100.00;101562.31;4971034;28;20045;-76
2022/03/25 05:25:34;;;;;;;33.33;22.02;;;2.70;97.40;;;1.96;100.00;101563.41;4974004;28;20050;-76
2022/03/25 05:28:01;;;;;;;43.67;23.33;;;2.70;98.00;;;2.02;100.00;101566.16;4989910;28;20550;-76
2022/03/25 05:30:31;;;;;;;36.00;22.48;;;2.70;97.90;;;2.00;100.00;101572.16;4992097;28;20058;-78
2022/03/25 05:32:59;;;;;;;;;;;2.70;97.90;;;2.03;100.00;101569.66;4994177;28;20046;-75
2022/03/25 05:35:28;;;;;;;33.85;21.63;;;2.70;97.90;;;2.01;100.00;101577.38;4990450;28;19925;-79
2022/03/25 05:37:56;;;;;;;39.88;24.02;;;2.80;97.90;;;2.03;100.00;101569.66;5004992;28;20106;-80
2022/03/25 05:40:25;;;;;;;31.23;20.92;;;2.80;97.80;;;2.03;100.00;101575.75;5014092;28;20054;-77
2022/03/25 05:42:53;;;;;;;33.25;22.13;;;2.80;97.90;;;2.06;100.00;101581.03;4995466;28;20069;-79
2022/03/25 05:45:22;;;;;;;35.33;22.55;;;2.80;97.70;;;2.06;100.00;101577.53;4996183;28;20065;-78
2022/03/25 05:47:50;;;;;;;32.37;21.60;;;2.80;97.70;;;1.97;100.00;101576.44;4994252;28;20046;-76
2022/03/25 05:50:18;;;;;;;28.05;20.63;;;2.80;98.10;;;2.03;100.00;101580.94;4981686;28;20781;-77
2022/03/25 05:52:45;;;;;;;31.92;20.88;;;2.90;98.00;;;2.03;100.00;101583.53;4987222;28;20054;-77
2022/03/25 05:55:13;;;;;;;34.40;22.23;;;2.90;98.20;;;1.94;100.00;101583.25;4963280;28;20420;-77
2022/03/25 05:57:40;;;;;;;30.58;21.35;;;2.90;98.30;;;2.07;100.00;101592.28;4988910;28;20125;-78
2022/03/25 06:00:09;;;;;;;33.10;22.45;;;2.80;98.00;;;2.13;100.00;101589.88;4990337;28;20562;-79
2022/03/25 06:02:39;;;;;;;31.38;21.25;;;2.70;98.00;;;2.12;100.00;101595.91;4990550;28;20130;-81
2022/03/25 06:05:07;;;;;;;40.20;21.75;;;2.80;98.10;;;2.11;100.00;101597.63;4994347;28;20495;-78
2022/03/25 06:07:39;;;;;;;34.55;22.90;;;2.90;97.80;;;2.20;100.00;101599.59;4994198;28;20496;-79
2022/03/25 06:10:09;;;;;;;35.38;21.48;;;2.90;98.20;;;2.15;100.00;101602.91;4979391;28;20051;-80
2022/03/25 06:12:37;;;;;;;31.98;20.85;;;2.80;98.50;;;2.24;100.00;101603.19;4994582;28;20054;-76
2022/03/25 06:15:06;;;;;;;32.72;22.17;;;3.00;98.10;;;2.20;100.00;101597.00;4994371;28;20038;-77
2022/03/25 06:17:48;;;;;;;33.75;22.75;;;2.90;98.20;;;2.30;100.00;101603.34;4991412;28;20050;-78
2022/03/25 06:20:20;;;;;;;33.15;22.17;;;2.90;98.30;;;2.36;100.00;101610.47;4992167;28;20046;-77
2022/03/25 06:22:49;;;;;;;33.63;21.42;;;4.70;99.40;;;2.31;100.00;101606.84;4990149;28;20046;-77
2022/03/25 06:25:17;;;;;;;33.65;21.83;;;3.00;98.50;;;2.40;100.00;101612.31;4992356;28;20486;-77
2022/03/25 06:27:50;;;;;;;35.67;23.10;;;4.30;98.60;;;2.45;100.00;101612.44;4987015;28;20053;-76
2022/03/25 06:30:24;;;;;;;30.77;21.77;;;3.50;98.30;;;2.54;100.00;101616.19;4990511;28;20502;-77
2022/03/25 06:32:51;;;;;;;32.40;21.00;;;3.00;98.20;;;2.53;100.00;101618.75;4987927;28;20050;-77
2022/03/25 06:35:19;;;;;;;32.78;20.42;;;3.20;98.20;;;2.54;100.00;101617.94;4989136;28;20053;-77
2022/03/25 06:37:47;;;;;;;33.00;22.05;;;4.90;98.50;;;2.50;100.00;101616.09;4989001;28;20597;-77
2022/03/25 06:40:15;;;;;;;31.63;21.65;;;3.30;98.50;;;2.64;100.00;101621.66;4973278;28;20054;-77
2022/03/25 06:42:43;;;;;;;29.02;19.88;;;3.30;98.50;;;2.62;100.00;101623.34;4971803;28;20051;-76
2022/03/25 06:45:14;;;;;;;32.80;20.55;;;4.10;98.40;;;2.74;100.00;101625.41;4989901;28;20538;-77
2022/03/25 06:47:42;;;;;;;32.47;21.52;;;5.10;98.30;;;2.76;100.00;101619.44;4989379;28;20054;-77
2022/03/25 06:50:13;;;;;;;29.08;21.10;;;4.20;98.00;;;2.91;100.00;101618.09;4975664;28;20052;-77
2022/03/25 06:52:41;;;;;;;39.05;27.15;;;3.50;97.80;;;3.05;100.00;101627.16;4976240;28;20052;-77
2022/03/25 06:55:10;;;;;;;68.97;41.70;;;3.60;98.20;;;3.25;100.00;101625.06;4988838;28;20065;-77
2022/03/25 06:57:38;;;;;;;86.15;54.70;;;3.70;98.40;;;3.35;100.00;101620.97;4971704;28;20770;-77
2022/03/25 07:00:12;;;;;;;62.70;41.70;;;3.80;98.50;;;3.47;100.00;101624.75;4988451;28;20045;-77
2022/03/25 07:02:40;;;;;;;54.28;31.55;;;3.90;98.20;;;3.50;100.00;101624.81;4973520;28;20061;-77
2022/03/25 07:05:11;;;;;;;42.10;28.38;;;4.00;98.10;;;3.60;100.00;101626.81;4996267;28;20050;-79
2022/03/25 07:07:40;;;;;;;41.28;26.58;;;4.10;98.20;;;3.67;100.00;101628.75;4981269;28;20085;-79
2022/03/25 07:10:09;;;;;;;36.72;23.42;;;4.10;98.30;;;3.92;100.00;101634.53;4981230;28;20117;-77
2022/03/25 07:12:43;;;;;;;37.45;24.75;;;4.30;98.60;;;4.03;100.00;101633.94;4994289;28;20109;-77
2022/03/25 07:15:10;;;;;;;33.90;22.83;;;4.40;98.30;;;4.13;100.00;101632.41;4987959;28;20133;-76
2022/03/25 07:17:37;;;;;;;36.20;23.60;;;5.10;98.10;;;4.26;100.00;101637.06;4971473;28;20050;-77
2022/03/25 07:20:09;;;;;;;33.28;22.40;;;5.00;98.30;;;4.46;100.00;101631.41;4989109;28;20066;-77
2022/03/25 07:22:36;;;;;;;34.63;22.70;;;4.80;98.20;;;4.58;100.00;101631.66;4972778;28;20054;-76
2022/03/25 07:25:04;;;;;;;34.08;23.95;;;4.90;97.90;;;4.71;100.00;101624.97;4987330;28;20527;-76
2022/03/25 07:27:32;;;;;;;35.58;24.98;;;5.00;97.70;;;4.85;100.00;101630.47;4987723;28;20089;-77
2022/03/25 07:29:59;;;;;;;37.47;25.73;;;5.10;97.40;;;5.00;100.00;101631.63;4974911;28;20547;-78
2022/03/25 07:32:26;;;;;;;39.55;25.08;;;5.30;97.60;;;5.16;100.00;101640.63;4996414;28;20050;-78
2022/03/25 07:34:53;;;;;;;37.70;26.08;;;5.40;97.50;;;5.35;100.00;101639.22;4983151;28;20042;-79
2022/03/25 07:37:21;;;;;;;36.60;25.50;;;7.00;97.80;;;5.50;100.00;101636.91;4991136;28;20488;-76
2022/03/25 07:39:48;;;;;;;40.65;27.05;;;5.70;97.40;;;5.66;100.00;101632.78;4989698;28;20654;-77
2022/03/25 07:42:19;;;;;;;49.20;28.27;;;5.80;97.20;;;5.86;100.00;101636.59;4990075;28;20046;-77
2022/03/25 07:44:50;;;;;;;43.75;28.23;;;6.00;96.80;;;6.05;100.00;101632.56;4988340;28;20499;-76
2022/03/25 07:47:17;;;;;;;44.88;29.42;;;6.20;96.60;;;6.14;100.00;101631.84;4971233;28;20074;-76
2022/03/25 07:49:45;;;;;;;45.92;29.17;;;7.50;96.60;;;6.29;100.00;101636.38;4987407;28;20047;-76
2022/03/25 07:52:14;;;;;;;50.45;30.63;;;7.20;96.20;;;6.50;100.00;101628.84;4971603;28;20423;-77
2022/03/25 07:54:41;;;;;;;47.85;30.25;;;6.60;96.40;;;6.62;100.00;101638.59;4987429;28;20637;-76
2022/03/25 07:57:08;;;;;;;53.92;29.40;;;6.80;95.90;;;6.67;100.00;101638.66;4988155;28;20046;-78
2022/03/25 07:59:36;;;;;;;42.78;28.35;;;6.80;95.70;;;6.77;100.00;101635.28;4981470;28;20519;-76
2022/03/25 08:02:03;;;;;;;45.38;29.17;;;7.20;95.70;;;6.94;100.00;101634.59;4988943;28;20451;-78
2022/03/25 08:04:30;;;;;;;45.63;29.95;;;7.10;95.60;;;7.13;100.00;101642.66;4972019;28;20078;-77
2022/03/25 08:07:15;;;;;;;48.30;30.13;;;7.40;95.60;;;7.25;100.00;101634.91;4975316;28;20498;-78
2022/03/25 08:09:42;;;;;;;47.40;29.70;;;7.40;95.40;;;7.33;100.00;101628.03;4988838;28;20492;-77
2022/03/25 08:12:10;;;;;;;45.30;30.20;;;8.00;95.30;;;7.47;100.00;101635.16;4988743;28;20054;-77
2022/03/25 08:14:37;;;;;;;50.35;30.50;;;7.60;94.80;;;7.53;97.95;101640.44;4953101;28;20563;-76
2022/03/25 08:17:04;;;;;;;45.05;28.67;;;7.70;94.50;;;7.66;98.60;101633.56;4991852;28;20046;-76
2022/03/25 08:19:35;;;;;;;49.70;28.73;;;7.80;94.50;;;7.78;95.63;101630.16;4992962;28;20408;-77
2022/03/25 08:22:03;;;;;;;48.90;30.13;;;7.90;94.20;;;7.93;94.42;101634.63;5008877;28;20046;-76
2022/03/25 08:30:20;;;;;;;44.88;29.83;;;8.60;93.60;;;8.37;85.52;101646.31;4995922;28;20565;-77
2022/03/25 08:32:47;;;;;;;44.55;30.33;;;8.40;93.10;;;8.46;83.43;101638.47;4972485;28;20046;-76
2022/03/25 08:35:14;;;;;;;45.38;27.67;;;8.50;92.70;;;8.62;77.27;101641.19;4990927;28;20042;-76
2022/03/25 08:37:42;;;;;;;45.90;29.40;;;8.70;92.10;;;8.71;75.28;101646.50;4973686;28;20046;-76
2022/03/25 08:40:10;;;;;;;40.92;26.90;;;9.10;91.80;;;8.83;72.70;101648.28;4989047;28;20559;-76
2022/03/25 08:42:38;;;;;;;46.20;30.27;;;8.90;91.30;;;8.95;72.53;101647.44;4991523;28;20045;-76
2022/03/25 08:45:06;;;;;;;45.08;28.23;;;9.00;91.20;;;9.05;72.06;101651.84;4994999;28;20046;-77
2022/03/25 08:47:34;;;;;;;44.38;29.15;;;9.10;91.10;;;9.16;72.26;101651.03;4958759;28;20051;-76
2022/03/25 08:50:01;;;;;;;45.75;29.85;;;9.20;91.00;;;9.29;71.28;101647.56;4988730;28;20046;-77
2022/03/25 08:52:28;;;;;;;40.72;28.77;;;9.30;90.80;;;9.43;70.60;101654.56;4986236;28;20038;-76
2022/03/25 08:54:55;;;;;;;40.47;28.25;;;9.40;90.70;;;9.51;66.42;101652.81;5007834;28;20121;-77
2022/03/25 08:57:22;;;;;;;44.22;30.55;;;10.00;90.10;;;9.64;64.89;101640.56;4995291;28;20137;-77
2022/03/25 08:59:49;;;;;;;42.58;28.73;;;9.60;89.30;;;9.72;65.32;101648.44;4993054;28;20121;-77
2022/03/25 09:02:16;;;;;;;45.95;29.17;;;10.10;89.40;;;9.84;65.24;101647.59;4978204;28;20106;-78
2022/03/25 09:04:46;;;;;;;43.80;28.88;;;10.60;89.40;;;9.86;64.15;101641.44;4974431;28;20512;-77
2022/03/25 09:07:13;;;;;;;40.22;28.40;;;9.90;88.30;;;9.98;63.65;101647.56;4977597;28;20050;-77
2022/03/25 09:09:40;;;;;;;52.63;32.38;;;10.00;88.00;;;10.13;66.86;101647.56;4989199;28;20137;-76
2022/03/25 09:12:08;;;;;;;47.90;31.17;;;10.10;89.20;;;10.27;67.09;101649.28;4989090;28;20141;-77
2022/03/25 09:14:36;;;;;;;44.97;32.05;;;10.30;89.30;;;10.35;68.49;101645.75;4989806;28;20738;-77
2022/03/25 09:17:03;;;;;;;44.20;30.10;;;10.40;89.60;;;10.47;68.04;101646.63;4992072;28;20096;-80
2022/03/25 09:19:30;;;;;;;49.83;32.05;;;10.50;89.40;;;10.56;68.48;101635.22;4991846;28;20504;-80
2022/03/25 09:21:57;;;;;;;41.53;29.67;;;10.80;89.60;;;10.72;62.78;101636.91;4993078;28;20074;-78
2022/03/25 09:24:27;;;;;;;42.97;29.25;;;12.00;88.30;;;10.79;58.00;101627.22;4997104;28;20573;-80
2022/03/25 09:26:54;;;;;;;43.42;27.77;;;10.80;85.30;;;10.93;58.11;101635.03;4985524;28;20065;-82
2022/03/25 09:29:21;;;;;;;45.55;30.13;;;10.90;84.70;;;11.05;57.25;101629.69;4985774;28;20050;-80
2022/03/25 09:31:48;;;;;;;42.80;28.98;;;11.70;84.70;;;11.19;55.73;101626.97;4977495;28;20154;-78
2022/03/25 09:37:21;;;;;;;43.80;29.35;;;11.40;82.40;;;11.65;53.72;101616.97;4981140;28;20061;-78
2022/03/25 09:40:16;;;;;;;48.13;31.17;;;11.50;81.20;;;11.83;52.70;101607.16;4981076;28;20038;-79
2022/03/25 09:42:45;;;;;;;43.90;30.60;;;11.70;80.00;;;11.88;52.99;101614.13;4995219;28;20057;-78
2022/03/25 09:45:15;;;;;;;50.13;32.60;;;11.80;79.60;;;12.00;51.96;101618.41;4959156;28;20066;-78
2022/03/25 09:47:43;;;;;;;48.60;32.47;;;10.50;77.80;;;12.11;51.75;101625.38;4975481;28;20043;-78
2022/03/25 09:50:14;;;;;;;43.50;29.95;;;12.30;78.50;;;12.18;53.04;101616.53;4996118;28;20046;-77
2022/03/25 09:52:43;;;;;;;44.35;29.25;;;12.30;79.30;;;12.33;51.93;101612.84;4992520;28;20048;-78
2022/03/25 09:55:29;;;;;;;43.30;29.80;;;12.30;78.10;;;12.50;50.67;101611.75;4994972;28;20050;-78
2022/03/25 09:57:56;;;;;;;43.85;29.92;;;12.90;77.00;;;12.60;50.10;101614.25;4977274;28;20054;-76
2022/03/25 10:00:23;;;;;;;49.85;30.63;;;12.50;76.20;;;12.73;49.51;101607.06;4976099;28;20047;-77
2022/03/25 10:02:50;;;;;;;43.15;30.48;;;12.60;75.40;;;12.81;48.49;101611.38;4990297;28;20046;-77
2022/03/25 10:05:20;;;;;;;41.53;31.10;;;11.30;72.90;;;12.97;48.06;101612.03;4993225;28;20057;-77
2022/03/25 10:07:50;;;;;;;44.38;31.10;;;12.90;73.40;;;13.04;49.74;101609.28;5005918;28;20050;-77
2022/03/25 10:10:21;;;;;;;44.13;30.23;;;13.00;74.20;;;13.14;48.00;101612.66;4988435;28;20055;-78
2022/03/25 10:13:04;;;;;;;42.95;30.67;;;13.10;72.70;;;13.25;47.63;101603.69;4998301;28;20735;-78
2022/03/25 10:15:34;;;;;;;45.70;31.00;;;13.20;72.40;;;13.34;47.65;101609.69;4997801;28;20057;-77
2022/03/25 10:18:05;;;;;;;43.30;30.48;;;13.20;71.50;;;13.46;47.75;101606.03;4998096;28;20057;-76
2022/03/25 10:20:36;;;;;;;41.17;30.10;;;13.30;71.50;;;13.51;47.29;101605.09;4977883;28;20053;-78
2022/03/25 10:23:17;;;;;;;39.78;29.85;;;13.30;71.00;;;13.66;46.64;101606.59;4977746;28;20049;-77
2022/03/25 10:25:51;;;;;;;43.28;32.22;;;13.50;70.20;;;13.78;47.39;101605.53;4992819;28;20486;-77